Time,TemperatureF,DewpointF,PressureIn,WindDirection,WindDirectionDegrees,WindSpeedMPH,WindSpeedGustMPH,Humidity,HourlyPrecipIn,Conditions,Clouds,dailyrainin,SoftwareType,DateUTC
2013-04-27 00:00:00,69.1,65.4,30.28,South,180,0.0,0.0,88,0.00,,,0.00,Wunderground v.1.15,2013-04-27 04:00:00,
2013-04-27 00:05:00,69.0,65.3,30.27,South,180,0.0,0.0,88,0.00,,,0.00,Wunderground v.1.15,2013-04-27 04:05:00,
2013-04-27 00:15:00,68.9,65.5,30.27,South,180,0.0,0.0,89,0.00,,,0.00,Wunderground v.1.15,2013-04-27 04:15:00,
2013-04-27 00:20:00,68.8,65.4,30.27,South,185,1.0,3.0,89,0.00,,,0.00,Wunderground v.1.15,2013-04-27 04:20:00,
2013-04-27 00:25:00,68.7,65.3,30.27,South,185,2.0,3.0,89,0.00,,,0.00,Wunderground v.1.15,2013-04-27 04:25:00,
2013-04-27 00:30:00,68.6,65.2,30.27,South,190,1.0,1.0,89,0.00,,,0.00,Wunderground v.1.15,2013-04-27 04:30:00,
2013-04-27 00:40:00,68.5,65.4,30.27,South,191,0.0,2.0,90,0.00,,,0.00,Wunderground v.1.15,2013-04-27 04:40:00,
2013-04-27 00:45:00,68.4,65.4,30.27,SSW,192,0.0,2.0,90,0.00,,,0.00,Wunderground v.1.15,2013-04-27 04:45:00,
2013-04-27 00:50:00,68.3,65.3,30.27,SSW,193,0.0,0.0,90,0.00,,,0.00,Wunderground v.1.15,2013-04-27 04:50:00,
2013-04-27 00:55:00,68.1,65.1,30.27,SSW,193,0.0,0.0,90,0.00,,,0.00,Wunderground v.1.15,2013-04-27 04:55:00,
2013-04-27 01:00:00,68.0,65.0,30.27,SSW,194,0.0,0.0,90,0.00,,,0.00,Wunderground v.1.15,2013-04-27 05:00:00,
2013-04-27 01:10:00,67.8,65.1,30.26,SSW,194,0.0,0.0,91,0.00,,,0.00,Wunderground v.1.15,2013-04-27 05:10:00,
2013-04-27 01:15:00,67.7,65.0,30.26,SSW,194,0.0,0.0,91,0.00,,,0.00,Wunderground v.1.15,2013-04-27 05:15:00,
2013-04-27 01:25:00,67.5,64.8,30.26,SSW,194,0.0,0.0,91,0.00,,,0.00,Wunderground v.1.15,2013-04-27 05:25:00,
2013-04-27 01:30:00,67.4,64.7,30.26,SSW,194,0.0,0.0,91,0.00,,,0.00,Wunderground v.1.15,2013-04-27 05:30:00,
2013-04-27 01:35:00,67.3,64.6,30.26,SSW,194,0.0,0.0,91,0.00,,,0.00,Wunderground v.1.15,2013-04-27 05:35:00,
2013-04-27 01:40:00,67.2,64.5,30.25,SSW,194,0.0,0.0,91,0.00,,,0.00,Wunderground v.1.15,2013-04-27 05:40:00,
2013-04-27 01:45:00,67.1,64.4,30.25,SSW,194,0.0,0.0,91,0.00,,,0.00,Wunderground v.1.15,2013-04-27 05:45:00,
2013-04-27 01:50:00,67.1,64.4,30.24,SSW,194,0.0,0.0,91,0.00,,,0.00,Wunderground v.1.15,2013-04-27 05:50:00,
2013-04-27 01:55:00,67.0,64.3,30.24,SSW,194,0.0,0.0,91,0.00,,,0.00,Wunderground v.1.15,2013-04-27 05:55:00,
2013-04-27 02:00:00,66.9,64.5,30.24,SSW,194,0.0,0.0,92,0.00,,,0.00,Wunderground v.1.15,2013-04-27 06:00:00,
2013-04-27 02:05:00,66.8,64.4,30.24,SSW,194,0.0,0.0,92,0.00,,,0.00,Wunderground v.1.15,2013-04-27 06:05:00,
2013-04-27 02:10:00,66.7,64.3,30.23,SSW,194,0.0,0.0,92,0.00,,,0.00,Wunderground v.1.15,2013-04-27 06:10:00,
2013-04-27 02:15:00,66.6,64.2,30.23,SSW,194,0.0,0.0,92,0.00,,,0.00,Wunderground v.1.15,2013-04-27 06:15:00,
2013-04-27 02:20:00,66.6,64.2,30.23,SSW,194,0.0,0.0,92,0.00,,,0.00,Wunderground v.1.15,2013-04-27 06:20:00,
2013-04-27 02:30:00,66.4,64.0,30.23,SSW,194,0.0,0.0,92,0.00,,,0.00,Wunderground v.1.15,2013-04-27 06:30:00,
2013-04-27 02:35:00,66.3,63.9,30.23,SSW,194,0.0,0.0,92,0.00,,,0.00,Wunderground v.1.15,2013-04-27 06:35:00,
2013-04-27 02:45:00,66.0,63.6,30.22,SSW,194,0.0,0.0,92,0.00,,,0.00,Wunderground v.1.15,2013-04-27 06:45:00,
2013-04-27 02:50:00,65.9,63.5,30.22,SSW,194,0.0,0.0,92,0.00,,,0.00,Wunderground v.1.15,2013-04-27 06:50:00,
2013-04-27 02:55:00,65.9,63.5,30.22,SSW,194,0.0,0.0,92,0.00,,,0.00,Wunderground v.1.15,2013-04-27 06:55:00,
2013-04-27 03:00:00,65.8,63.4,30.22,SSW,194,0.0,0.0,92,0.00,,,0.00,Wunderground v.1.15,2013-04-27 07:00:00,
2013-04-27 03:10:00,65.6,63.2,30.22,SSW,194,0.0,0.0,92,0.00,,,0.00,Wunderground v.1.15,2013-04-27 07:10:00,
2013-04-27 03:15:00,65.5,63.4,30.22,SSW,194,1.0,1.0,93,0.00,,,0.00,Wunderground v.1.15,2013-04-27 07:15:00,
2013-04-27 03:20:00,65.5,63.4,30.22,SSW,194,0.0,0.0,93,0.00,,,0.00,Wunderground v.1.15,2013-04-27 07:20:00,
2013-04-27 03:25:00,65.5,63.4,30.22,SSW,194,0.0,0.0,93,0.00,,,0.00,Wunderground v.1.15,2013-04-27 07:25:00,
2013-04-27 03:30:00,65.4,63.3,30.21,SSW,194,0.0,0.0,93,0.00,,,0.00,Wunderground v.1.15,2013-04-27 07:30:00,
2013-04-27 03:35:00,65.3,63.2,30.22,SSW,194,0.0,0.0,93,0.00,,,0.00,Wunderground v.1.15,2013-04-27 07:35:00,
2013-04-27 03:40:00,65.2,63.1,30.22,SSW,194,0.0,0.0,93,0.00,,,0.00,Wunderground v.1.15,2013-04-27 07:40:00,
2013-04-27 03:45:00,65.0,62.9,30.22,SSW,194,0.0,0.0,93,0.00,,,0.00,Wunderground v.1.15,2013-04-27 07:45:00,
2013-04-27 03:50:00,65.0,62.9,30.22,SSW,194,0.0,0.0,93,0.00,,,0.00,Wunderground v.1.15,2013-04-27 07:50:00,
2013-04-27 03:55:00,65.0,62.9,30.22,SSW,194,0.0,0.0,93,0.00,,,0.00,Wunderground v.1.15,2013-04-27 07:55:00,
2013-04-27 04:00:00,65.1,63.0,30.22,SSW,194,0.0,0.0,93,0.00,,,0.00,Wunderground v.1.15,2013-04-27 08:00:00,
2013-04-27 04:05:00,65.1,63.0,30.22,SSW,194,0.0,0.0,93,0.00,,,0.00,Wunderground v.1.15,2013-04-27 08:05:00,
2013-04-27 04:10:00,65.2,63.1,30.22,SSW,194,1.0,1.0,93,0.00,,,0.00,Wunderground v.1.15,2013-04-27 08:10:00,
2013-04-27 04:15:00,65.2,63.1,30.22,SSW,194,0.0,1.0,93,0.00,,,0.00,Wunderground v.1.15,2013-04-27 08:15:00,
2013-04-27 04:20:00,65.1,63.0,30.22,SSW,194,0.0,0.0,93,0.00,,,0.00,Wunderground v.1.15,2013-04-27 08:20:00,
2013-04-27 04:30:00,65.0,63.2,30.22,SSW,194,0.0,0.0,94,0.00,,,0.00,Wunderground v.1.15,2013-04-27 08:30:00,
2013-04-27 04:35:00,65.0,63.2,30.21,SSW,194,0.0,0.0,94,0.00,,,0.00,Wunderground v.1.15,2013-04-27 08:35:00,
2013-04-27 04:40:00,64.8,63.0,30.22,SSW,194,0.0,0.0,94,0.00,,,0.00,Wunderground v.1.15,2013-04-27 08:40:00,
2013-04-27 04:45:00,64.6,62.8,30.22,SSW,194,0.0,0.0,94,0.00,,,0.00,Wunderground v.1.15,2013-04-27 08:45:00,
2013-04-27 04:50:00,64.4,62.3,30.22,SSW,194,0.0,0.0,93,0.00,,,0.00,Wunderground v.1.15,2013-04-27 08:50:00,
2013-04-27 05:00:00,63.8,61.7,30.22,SSW,194,0.0,0.0,93,0.00,,,0.00,Wunderground v.1.15,2013-04-27 09:00:00,
2013-04-27 05:05:00,63.6,61.5,30.22,SSW,194,0.0,0.0,93,0.00,,,0.00,Wunderground v.1.15,2013-04-27 09:05:00,
2013-04-27 05:10:00,63.4,61.3,30.22,SSW,194,0.0,0.0,93,0.00,,,0.00,Wunderground v.1.15,2013-04-27 09:10:00,
2013-04-27 05:15:00,63.3,61.2,30.22,SSW,194,0.0,0.0,93,0.00,,,0.00,Wunderground v.1.15,2013-04-27 09:15:00,
2013-04-27 05:20:00,63.2,61.1,30.22,SSW,194,0.0,0.0,93,0.00,,,0.00,Wunderground v.1.15,2013-04-27 09:20:00,
2013-04-27 05:25:00,63.2,61.4,30.21,SSW,194,0.0,0.0,94,0.00,,,0.00,Wunderground v.1.15,2013-04-27 09:25:00,
2013-04-27 05:30:00,63.1,61.3,30.21,SSW,194,0.0,0.0,94,0.00,,,0.00,Wunderground v.1.15,2013-04-27 09:30:00,
2013-04-27 05:35:00,63.1,61.3,30.22,SSW,194,0.0,0.0,94,0.00,,,0.00,Wunderground v.1.15,2013-04-27 09:35:00,
2013-04-27 05:40:00,63.1,61.3,30.22,SSW,194,0.0,0.0,94,0.00,,,0.00,Wunderground v.1.15,2013-04-27 09:40:00,
2013-04-27 05:50:00,63.0,61.2,30.22,SSW,194,0.0,0.0,94,0.00,,,0.00,Wunderground v.1.15,2013-04-27 09:50:00,
2013-04-27 05:55:00,63.0,61.2,30.22,SSW,194,0.0,0.0,94,0.00,,,0.00,Wunderground v.1.15,2013-04-27 09:55:00,
2013-04-27 06:00:00,63.3,61.5,30.22,SSW,194,0.0,0.0,94,0.00,,,0.00,Wunderground v.1.15,2013-04-27 10:00:00,
2013-04-27 06:10:00,64.0,62.2,30.22,SSW,194,0.0,0.0,94,0.00,,,0.00,Wunderground v.1.15,2013-04-27 10:10:00,
2013-04-27 06:15:00,64.0,62.2,30.22,SSW,194,0.0,0.0,94,0.00,,,0.00,Wunderground v.1.15,2013-04-27 10:15:00,
2013-04-27 06:20:00,64.1,62.3,30.22,SSW,194,0.0,0.0,94,0.00,,,0.00,Wunderground v.1.15,2013-04-27 10:20:00,
2013-04-27 06:25:00,64.0,62.2,30.22,SSW,194,0.0,0.0,94,0.00,,,0.00,Wunderground v.1.15,2013-04-27 10:25:00,
2013-04-27 06:35:00,64.0,62.5,30.22,SSW,194,0.0,0.0,95,0.00,,,0.00,Wunderground v.1.15,2013-04-27 10:35:00,
2013-04-27 06:45:00,64.0,62.5,30.22,SSW,194,0.0,0.0,95,0.00,,,0.00,Wunderground v.1.15,2013-04-27 10:45:00,
2013-04-27 06:50:00,64.0,62.5,30.22,West,260,0.0,0.0,95,0.00,,,0.00,Wunderground v.1.15,2013-04-27 10:50:00,
2013-04-27 06:55:00,64.0,62.5,30.23,WSW,246,0.0,2.0,95,0.00,,,0.00,Wunderground v.1.15,2013-04-27 10:55:00,
2013-04-27 07:00:00,64.1,62.6,30.23,SW,218,1.0,1.0,95,0.00,,,0.00,Wunderground v.1.15,2013-04-27 11:00:00,
2013-04-27 07:05:00,64.1,62.6,30.23,SW,218,1.0,1.0,95,0.00,,,0.00,Wunderground v.1.15,2013-04-27 11:05:00,
2013-04-27 07:10:00,64.1,62.6,30.23,SW,218,0.0,0.0,95,0.00,,,0.00,Wunderground v.1.15,2013-04-27 11:10:00,
2013-04-27 07:15:00,64.2,62.7,30.23,SW,218,0.0,0.0,95,0.00,,,0.00,Wunderground v.1.15,2013-04-27 11:15:00,
2013-04-27 07:20:00,64.3,62.8,30.23,SW,218,0.0,0.0,95,0.00,,,0.00,Wunderground v.1.15,2013-04-27 11:20:00,
2013-04-27 07:25:00,64.4,62.9,30.24,SSW,210,0.0,4.0,95,0.00,,,0.00,Wunderground v.1.15,2013-04-27 11:25:00,
2013-04-27 07:30:00,64.7,63.2,30.23,SSW,208,1.0,3.0,95,0.00,,,0.00,Wunderground v.1.15,2013-04-27 11:30:00,
2013-04-27 07:35:00,64.9,63.4,30.23,SSW,208,1.0,3.0,95,0.00,,,0.00,Wunderground v.1.15,2013-04-27 11:35:00,
2013-04-27 07:40:00,65.1,63.6,30.23,South,189,1.0,1.0,95,0.00,,,0.00,Wunderground v.1.15,2013-04-27 11:40:00,
2013-04-27 07:45:00,65.2,63.7,30.23,South,189,0.0,1.0,95,0.00,,,0.00,Wunderground v.1.15,2013-04-27 11:45:00,
2013-04-27 07:50:00,65.4,63.9,30.24,South,189,0.0,0.0,95,0.00,,,0.00,Wunderground v.1.15,2013-04-27 11:50:00,
2013-04-27 08:00:00,65.8,64.6,30.24,South,189,0.0,0.0,96,0.00,,,0.00,Wunderground v.1.15,2013-04-27 12:00:00,
2013-04-27 08:05:00,65.9,64.4,30.24,South,191,0.0,5.0,95,0.00,,,0.00,Wunderground v.1.15,2013-04-27 12:05:00,
2013-04-27 08:15:00,66.3,65.1,30.24,South,191,0.0,5.0,96,0.00,,,0.00,Wunderground v.1.15,2013-04-27 12:15:00,
2013-04-27 08:20:00,66.6,65.4,30.24,South,191,1.0,1.0,96,0.00,,,0.00,Wunderground v.1.15,2013-04-27 12:20:00,
2013-04-27 08:30:00,67.1,65.9,30.24,South,191,0.0,5.0,96,0.00,,,0.00,Wunderground v.1.15,2013-04-27 12:30:00,
2013-04-27 08:35:00,67.5,66.3,30.24,South,191,0.0,5.0,96,0.00,,,0.00,Wunderground v.1.15,2013-04-27 12:35:00,
2013-04-27 08:40:00,67.8,66.6,30.24,South,191,0.0,5.0,96,0.00,,,0.00,Wunderground v.1.15,2013-04-27 12:40:00,
2013-04-27 08:45:00,68.1,66.9,30.24,South,191,0.0,5.0,96,0.00,,,0.00,Wunderground v.1.15,2013-04-27 12:45:00,
2013-04-27 08:50:00,68.2,66.7,30.24,South,170,1.0,5.0,95,0.00,,,0.00,Wunderground v.1.15,2013-04-27 12:50:00,
2013-04-27 09:00:00,68.8,67.6,30.24,SSW,203,2.0,2.0,96,0.00,,,0.00,Wunderground v.1.15,2013-04-27 13:00:00,
2013-04-27 09:05:00,69.3,67.8,30.24,SW,215,3.0,3.0,95,0.00,,,0.00,Wunderground v.1.15,2013-04-27 13:05:00,
2013-04-27 09:10:00,69.9,68.4,30.24,SW,222,2.0,2.0,95,0.00,,,0.00,Wunderground v.1.15,2013-04-27 13:10:00,
2013-04-27 09:15:00,70.4,68.9,30.25,SW,218,1.0,5.0,95,0.00,,,0.00,Wunderground v.1.15,2013-04-27 13:15:00,
2013-04-27 09:25:00,71.4,69.3,30.25,SW,224,4.0,7.0,93,0.00,,,0.00,Wunderground v.1.15,2013-04-27 13:25:00,
2013-04-27 09:30:00,72.0,69.2,30.25,SW,224,4.0,4.0,91,0.00,,,0.00,Wunderground v.1.15,2013-04-27 13:30:00,
2013-04-27 09:40:00,73.4,69.6,30.25,South,189,3.0,5.0,88,0.00,,,0.00,Wunderground v.1.15,2013-04-27 13:40:00,
2013-04-27 09:50:00,74.6,69.1,30.26,SW,221,3.0,3.0,83,0.00,,,0.00,Wunderground v.1.15,2013-04-27 13:50:00,
2013-04-27 09:55:00,75.1,69.2,30.25,SSW,201,3.0,5.0,82,0.00,,,0.00,Wunderground v.1.15,2013-04-27 13:55:00,
2013-04-27 10:05:00,75.9,68.2,30.25,SW,231,1.0,5.0,77,0.00,,,0.00,Wunderground v.1.15,2013-04-27 14:05:00,
2013-04-27 10:10:00,76.5,68.7,30.25,SSE,156,2.0,7.0,77,0.00,,,0.00,Wunderground v.1.15,2013-04-27 14:10:00,
2013-04-27 10:15:00,77.0,68.1,30.25,SW,231,4.0,7.0,74,0.00,,,0.00,Wunderground v.1.15,2013-04-27 14:15:00,
2013-04-27 10:20:00,77.3,68.0,30.26,WSW,251,4.0,7.0,73,0.00,,,0.00,Wunderground v.1.15,2013-04-27 14:20:00,
2013-04-27 10:25:00,77.1,67.8,30.26,SSW,198,3.0,7.0,73,0.00,,,0.00,Wunderground v.1.15,2013-04-27 14:25:00,
2013-04-27 10:30:00,76.8,67.5,30.25,SW,230,3.0,3.0,73,0.00,,,0.00,Wunderground v.1.15,2013-04-27 14:30:00,
2013-04-27 10:35:00,76.7,67.4,30.26,SW,232,3.0,8.0,73,0.00,,,0.00,Wunderground v.1.15,2013-04-27 14:35:00,
2013-04-27 10:40:00,76.6,67.3,30.26,SW,218,4.0,4.0,73,0.00,,,0.00,Wunderground v.1.15,2013-04-27 14:40:00,
2013-04-27 10:45:00,76.9,68.0,30.26,SSW,208,4.0,5.0,74,0.00,,,0.00,Wunderground v.1.15,2013-04-27 14:45:00,
2013-04-27 10:50:00,77.3,67.2,30.26,SW,226,2.0,5.0,71,0.00,,,0.00,Wunderground v.1.15,2013-04-27 14:50:00,
2013-04-27 10:55:00,77.4,67.3,30.26,South,180,2.0,5.0,71,0.00,,,0.00,Wunderground v.1.15,2013-04-27 14:55:00,
2013-04-27 11:00:00,77.6,67.0,30.26,SSW,199,3.0,5.0,70,0.00,,,0.00,Wunderground v.1.15,2013-04-27 15:00:00,
2013-04-27 11:05:00,77.9,66.9,30.25,SSW,199,3.0,5.0,69,0.00,,,0.00,Wunderground v.1.15,2013-04-27 15:05:00,
2013-04-27 11:10:00,78.0,66.6,30.25,West,263,2.0,2.0,68,0.00,,,0.00,Wunderground v.1.15,2013-04-27 15:10:00,
2013-04-27 11:15:00,78.6,67.6,30.25,NNW,330,2.0,5.0,69,0.00,,,0.00,Wunderground v.1.15,2013-04-27 15:15:00,
2013-04-27 11:20:00,79.6,67.2,30.25,SSW,202,3.0,5.0,66,0.00,,,0.00,Wunderground v.1.15,2013-04-27 15:20:00,
2013-04-27 11:25:00,80.3,67.5,30.25,WSW,250,3.0,5.0,65,0.00,,,0.00,Wunderground v.1.15,2013-04-27 15:25:00,
2013-04-27 11:30:00,80.3,67.0,30.25,NNW,342,3.0,3.0,64,0.00,,,0.00,Wunderground v.1.15,2013-04-27 15:30:00,
2013-04-27 11:35:00,81.0,67.7,30.25,WSW,254,3.0,5.0,64,0.00,,,0.00,Wunderground v.1.15,2013-04-27 15:35:00,
2013-04-27 11:40:00,81.1,66.8,30.25,West,260,4.0,4.0,62,0.00,,,0.00,Wunderground v.1.15,2013-04-27 15:40:00,
2013-04-27 11:45:00,81.1,66.8,30.24,SW,214,3.0,5.0,62,0.00,,,0.00,Wunderground v.1.15,2013-04-27 15:45:00,
2013-04-27 11:50:00,80.9,66.2,30.25,SW,227,3.0,3.0,61,0.00,,,0.00,Wunderground v.1.15,2013-04-27 15:50:00,
2013-04-27 11:55:00,80.7,66.0,30.25,SSW,199,3.0,5.0,61,0.00,,,0.00,Wunderground v.1.15,2013-04-27 15:55:00,
2013-04-27 12:00:00,80.8,66.1,30.25,SW,226,3.0,3.0,61,0.00,,,0.00,Wunderground v.1.15,2013-04-27 16:00:00,
2013-04-27 12:05:00,80.7,66.0,30.24,West,262,3.0,10.0,61,0.00,,,0.00,Wunderground v.1.15,2013-04-27 16:05:00,
2013-04-27 12:15:00,80.6,65.9,30.24,WSW,237,2.0,5.0,61,0.00,,,0.00,Wunderground v.1.15,2013-04-27 16:15:00,
2013-04-27 12:20:00,80.7,65.5,30.24,SW,223,2.0,2.0,60,0.00,,,0.00,Wunderground v.1.15,2013-04-27 16:20:00,
2013-04-27 12:25:00,81.2,65.5,30.24,West,261,2.0,5.0,59,0.00,,,0.00,Wunderground v.1.15,2013-04-27 16:25:00,
2013-04-27 12:35:00,82.4,66.1,30.23,WNW,289,5.0,7.0,58,0.00,,,0.00,Wunderground v.1.15,2013-04-27 16:35:00,
2013-04-27 12:40:00,82.6,65.8,30.23,WSW,240,6.0,6.0,57,0.00,,,0.00,Wunderground v.1.15,2013-04-27 16:40:00,
2013-04-27 12:45:00,82.8,66.0,30.23,WSW,257,5.0,7.0,57,0.00,,,0.00,Wunderground v.1.15,2013-04-27 16:45:00,
2013-04-27 12:50:00,82.8,65.5,30.23,WSW,239,5.0,5.0,56,0.00,,,0.00,Wunderground v.1.15,2013-04-27 16:50:00,
2013-04-27 12:55:00,82.6,65.3,30.23,SW,226,4.0,5.0,56,0.00,,,0.00,Wunderground v.1.15,2013-04-27 16:55:00,
2013-04-27 13:00:00,82.9,65.6,30.23,South,180,4.0,4.0,56,0.00,,,0.00,Wunderground v.1.15,2013-04-27 17:00:00,
2013-04-27 13:05:00,83.2,64.8,30.22,SE,139,4.0,5.0,54,0.00,,,0.00,Wunderground v.1.15,2013-04-27 17:05:00,
2013-04-27 13:10:00,83.4,66.1,30.23,WSW,257,3.0,5.0,56,0.00,,,0.00,Wunderground v.1.15,2013-04-27 17:10:00,
2013-04-27 13:15:00,83.8,64.8,30.22,West,274,4.0,5.0,53,0.00,,,0.00,Wunderground v.1.15,2013-04-27 17:15:00,
2013-04-27 13:20:00,84.1,64.6,30.22,WSW,243,4.0,4.0,52,0.00,,,0.00,Wunderground v.1.15,2013-04-27 17:20:00,
2013-04-27 13:25:00,84.5,65.5,30.22,South,180,3.0,10.0,53,0.00,,,0.00,Wunderground v.1.15,2013-04-27 17:25:00,
2013-04-27 13:30:00,84.4,63.7,30.22,West,281,4.0,5.0,50,0.00,,,0.00,Wunderground v.1.15,2013-04-27 17:30:00,
2013-04-27 13:40:00,85.1,64.9,30.22,SSW,210,3.0,5.0,51,0.00,,,0.00,Wunderground v.1.15,2013-04-27 17:40:00,
2013-04-27 13:45:00,85.4,66.3,30.21,WSW,246,3.0,5.0,53,0.00,,,0.00,Wunderground v.1.15,2013-04-27 17:45:00,
2013-04-27 13:50:00,85.2,64.5,30.21,SSW,193,4.0,4.0,50,0.00,,,0.00,Wunderground v.1.15,2013-04-27 17:50:00,
2013-04-27 13:55:00,85.4,64.1,30.21,WSW,252,4.0,5.0,49,0.00,,,0.00,Wunderground v.1.15,2013-04-27 17:55:00,
2013-04-27 14:00:00,85.0,63.1,30.21,South,175,4.0,4.0,48,0.00,,,0.00,Wunderground v.1.15,2013-04-27 18:00:00,
2013-04-27 14:05:00,84.3,64.8,30.21,SSW,197,4.0,5.0,52,0.00,,,0.00,Wunderground v.1.15,2013-04-27 18:05:00,
2013-04-27 14:10:00,84.6,63.3,30.20,WNW,299,2.0,5.0,49,0.00,,,0.00,Wunderground v.1.15,2013-04-27 18:10:00,
2013-04-27 14:15:00,85.0,64.3,30.20,WNW,292,3.0,6.0,50,0.00,,,0.00,Wunderground v.1.15,2013-04-27 18:15:00,
2013-04-27 14:20:00,85.4,64.1,30.20,SW,235,5.0,5.0,49,0.00,,,0.00,Wunderground v.1.15,2013-04-27 18:20:00,
2013-04-27 14:25:00,84.9,63.6,30.19,SSW,209,4.0,5.0,49,0.00,,,0.00,Wunderground v.1.15,2013-04-27 18:25:00,
2013-04-27 14:30:00,84.9,64.8,30.20,WSW,246,3.0,5.0,51,0.00,,,0.00,Wunderground v.1.15,2013-04-27 18:30:00,
2013-04-27 14:40:00,84.7,64.0,30.19,WNW,301,3.0,5.0,50,0.00,,,0.00,Wunderground v.1.15,2013-04-27 18:40:00,
2013-04-27 14:45:00,85.2,62.7,30.19,WNW,299,3.0,5.0,47,0.00,,,0.00,Wunderground v.1.15,2013-04-27 18:45:00,
2013-04-27 14:55:00,85.6,63.1,30.19,SSW,194,2.0,5.0,47,0.00,,,0.00,Wunderground v.1.15,2013-04-27 18:55:00,
2013-04-27 15:00:00,85.0,62.5,30.18,SSW,204,1.0,1.0,47,0.00,,,0.00,Wunderground v.1.15,2013-04-27 19:00:00,
2013-04-27 15:05:00,84.4,61.4,30.18,SSW,207,1.0,5.0,46,0.00,,,0.00,Wunderground v.1.15,2013-04-27 19:05:00,
2013-04-27 15:10:00,84.7,63.4,30.18,WNW,301,1.0,1.0,49,0.00,,,0.00,Wunderground v.1.15,2013-04-27 19:10:00,
2013-04-27 15:15:00,85.7,63.1,30.18,West,265,1.0,5.0,47,0.00,,,0.00,Wunderground v.1.15,2013-04-27 19:15:00,
2013-04-27 15:20:00,86.3,63.1,30.18,WNW,286,2.0,5.0,46,0.00,,,0.00,Wunderground v.1.15,2013-04-27 19:20:00,
2013-04-27 15:30:00,86.5,62.0,30.18,SSW,211,3.0,5.0,44,0.00,,,0.00,Wunderground v.1.15,2013-04-27 19:30:00,
2013-04-27 15:35:00,86.2,62.4,30.17,WSW,238,2.0,5.0,45,0.00,,,0.00,Wunderground v.1.15,2013-04-27 19:35:00,
2013-04-27 15:40:00,86.0,63.4,30.17,SSW,200,2.0,5.0,47,0.00,,,0.00,Wunderground v.1.15,2013-04-27 19:40:00,
2013-04-27 15:45:00,85.9,63.3,30.17,WSW,242,2.0,5.0,47,0.00,,,0.00,Wunderground v.1.15,2013-04-27 19:45:00,
2013-04-27 15:55:00,86.5,62.6,30.17,SSW,205,1.0,4.0,45,0.00,,,0.01,Wunderground v.1.15,2013-04-27 19:55:00,
2013-04-27 16:00:00,86.4,63.2,30.17,WNW,283,2.0,5.0,46,0.00,,,0.01,Wunderground v.1.15,2013-04-27 20:00:00,
2013-04-27 16:05:00,86.1,62.9,30.17,North,358,3.0,5.0,46,0.00,,,0.01,Wunderground v.1.15,2013-04-27 20:05:00,
2013-04-27 16:15:00,86.0,63.4,30.16,NW,310,2.0,9.0,47,0.00,,,0.01,Wunderground v.1.15,2013-04-27 20:15:00,
2013-04-27 16:20:00,86.2,62.4,30.16,North,355,3.0,3.0,45,0.00,,,0.01,Wunderground v.1.15,2013-04-27 20:20:00,
2013-04-27 16:25:00,86.5,63.3,30.15,SW,219,3.0,5.0,46,0.00,,,0.01,Wunderground v.1.15,2013-04-27 20:25:00,
2013-04-27 16:30:00,85.9,62.7,30.16,WSW,257,3.0,7.0,46,0.00,,,0.01,Wunderground v.1.15,2013-04-27 20:30:00,
2013-04-27 16:35:00,85.2,62.7,30.16,West,265,2.0,7.0,47,0.00,,,0.01,Wunderground v.1.15,2013-04-27 20:35:00,
2013-04-27 16:40:00,85.1,62.6,30.16,WSW,245,2.0,2.0,47,0.00,,,0.01,Wunderground v.1.15,2013-04-27 20:40:00,
2013-04-27 16:45:00,85.3,62.8,30.16,West,262,2.0,4.0,47,0.00,,,0.01,Wunderground v.1.15,2013-04-27 20:45:00,
2013-04-27 16:50:00,85.4,62.9,30.15,South,180,2.0,5.0,47,0.00,,,0.01,Wunderground v.1.15,2013-04-27 20:50:00,
2013-04-27 16:55:00,85.6,63.1,30.15,WNW,296,2.0,5.0,47,0.00,,,0.01,Wunderground v.1.15,2013-04-27 20:55:00,
2013-04-27 17:00:00,85.6,62.4,30.15,NW,324,2.0,2.0,46,0.00,,,0.01,Wunderground v.1.15,2013-04-27 21:00:00,
2013-04-27 17:05:00,85.3,62.8,30.15,WNW,302,1.0,5.0,47,0.00,,,0.01,Wunderground v.1.15,2013-04-27 21:05:00,
2013-04-27 17:10:00,85.5,62.4,30.15,WSW,242,1.0,5.0,46,0.00,,,0.01,Wunderground v.1.15,2013-04-27 21:10:00,
2013-04-27 17:15:00,85.7,63.1,30.15,SSW,213,2.0,5.0,47,0.00,,,0.01,Wunderground v.1.15,2013-04-27 21:15:00,
2013-04-27 17:20:00,85.7,62.5,30.15,West,278,2.0,2.0,46,0.00,,,0.01,Wunderground v.1.15,2013-04-27 21:20:00,
2013-04-27 17:25:00,85.6,63.1,30.15,SSW,211,2.0,5.0,47,0.00,,,0.01,Wunderground v.1.15,2013-04-27 21:25:00,
2013-04-27 17:30:00,85.5,63.6,30.15,SW,235,2.0,2.0,48,0.00,,,0.01,Wunderground v.1.15,2013-04-27 21:30:00,
2013-04-27 17:35:00,85.6,63.1,30.15,WNW,292,1.0,5.0,47,0.00,,,0.01,Wunderground v.1.15,2013-04-27 21:35:00,
2013-04-27 17:40:00,85.4,63.5,30.15,SW,221,2.0,2.0,48,0.00,,,0.01,Wunderground v.1.15,2013-04-27 21:40:00,
2013-04-27 17:45:00,85.0,63.1,30.15,WSW,248,2.0,5.0,48,0.00,,,0.01,Wunderground v.1.15,2013-04-27 21:45:00,
2013-04-27 17:50:00,84.6,62.7,30.15,WSW,237,3.0,3.0,48,0.00,,,0.01,Wunderground v.1.15,2013-04-27 21:50:00,
2013-04-27 17:55:00,83.7,62.5,30.15,WSW,255,3.0,5.0,49,0.00,,,0.01,Wunderground v.1.15,2013-04-27 21:55:00,
2013-04-27 18:00:00,83.2,62.6,30.15,SW,229,2.0,5.0,50,0.00,,,0.01,Wunderground v.1.15,2013-04-27 22:00:00,
2013-04-27 18:05:00,82.8,63.4,30.15,West,269,2.0,5.0,52,0.00,,,0.01,Wunderground v.1.15,2013-04-27 22:05:00,
2013-04-27 18:15:00,82.3,62.9,30.15,SW,225,3.0,3.0,52,0.00,,,0.01,Wunderground v.1.15,2013-04-27 22:15:00,
2013-04-27 18:20:00,82.2,63.4,30.15,West,270,3.0,3.0,53,0.00,,,0.01,Wunderground v.1.15,2013-04-27 22:20:00,
2013-04-27 18:25:00,82.0,63.2,30.16,SW,236,3.0,5.0,53,0.00,,,0.01,Wunderground v.1.15,2013-04-27 22:25:00,
2013-04-27 18:35:00,81.5,63.3,30.15,WSW,253,3.0,5.0,54,0.00,,,0.01,Wunderground v.1.15,2013-04-27 22:35:00,
2013-04-27 18:40:00,81.2,63.0,30.15,SW,226,2.0,2.0,54,0.00,,,0.01,Wunderground v.1.15,2013-04-27 22:40:00,
2013-04-27 18:45:00,81.0,63.3,30.15,SSW,210,1.0,5.0,55,0.00,,,0.01,Wunderground v.1.15,2013-04-27 22:45:00,
2013-04-27 18:50:00,80.7,63.0,30.16,WSW,237,2.0,5.0,55,0.00,,,0.01,Wunderground v.1.15,2013-04-27 22:50:00,
2013-04-27 18:55:00,80.3,63.2,30.16,WSW,237,2.0,11.0,56,0.00,,,0.01,Wunderground v.1.15,2013-04-27 22:55:00,
2013-04-27 19:05:00,79.2,63.1,30.16,WSW,250,4.0,9.0,58,0.00,,,0.01,Wunderground v.1.15,2013-04-27 23:05:00,
2013-04-27 19:10:00,78.7,63.2,30.16,WSW,241,4.0,4.0,59,0.00,,,0.01,Wunderground v.1.15,2013-04-27 23:10:00,
2013-04-27 19:15:00,78.2,63.2,30.16,SW,230,3.0,5.0,60,0.00,,,0.01,Wunderground v.1.15,2013-04-27 23:15:00,
2013-04-27 19:20:00,78.0,63.0,30.16,WNW,300,2.0,2.0,60,0.00,,,0.01,Wunderground v.1.15,2013-04-27 23:20:00,
2013-04-27 19:25:00,77.6,63.1,30.16,SW,217,1.0,6.0,61,0.00,,,0.01,Wunderground v.1.15,2013-04-27 23:25:00,
2013-04-27 19:30:00,77.3,62.8,30.16,South,175,1.0,1.0,61,0.00,,,0.01,Wunderground v.1.15,2013-04-27 23:30:00,
2013-04-27 19:35:00,76.9,62.9,30.16,SSW,208,1.0,5.0,62,0.00,,,0.01,Wunderground v.1.15,2013-04-27 23:35:00,
2013-04-27 19:40:00,76.7,63.2,30.16,SSW,195,0.0,5.0,63,0.00,,,0.01,Wunderground v.1.15,2013-04-27 23:40:00,
2013-04-27 19:45:00,76.4,62.9,30.16,South,189,0.0,5.0,63,0.00,,,0.01,Wunderground v.1.15,2013-04-27 23:45:00,
2013-04-27 19:50:00,76.1,63.0,30.16,WSW,239,1.0,1.0,64,0.00,,,0.01,Wunderground v.1.15,2013-04-27 23:50:00,
2013-04-27 19:55:00,75.8,62.8,30.16,West,262,2.0,2.0,64,0.00,,,0.01,Wunderground v.1.15,2013-04-27 23:55:00,
2013-04-27 20:00:00,75.5,62.5,30.17,SW,223,1.0,1.0,64,0.00,,,0.01,Wunderground v.1.15,2013-04-28 00:00:00,
2013-04-27 20:05:00,75.3,62.7,30.17,SW,228,0.0,5.0,65,0.00,,,0.01,Wunderground v.1.15,2013-04-28 00:05:00,
2013-04-27 20:10:00,75.0,62.4,30.17,SW,233,0.0,5.0,65,0.00,,,0.01,Wunderground v.1.15,2013-04-28 00:10:00,
2013-04-27 20:15:00,74.8,62.7,30.16,SW,214,0.0,5.0,66,0.00,,,0.01,Wunderground v.1.15,2013-04-28 00:15:00,
2013-04-27 20:20:00,74.5,62.4,30.17,South,190,0.0,5.0,66,0.00,,,0.01,Wunderground v.1.15,2013-04-28 00:20:00,
2013-04-27 20:25:00,74.3,62.6,30.17,SSW,208,0.0,5.0,67,0.00,,,0.01,Wunderground v.1.15,2013-04-28 00:25:00,
2013-04-27 20:30:00,74.0,62.8,30.17,SW,222,0.0,5.0,68,0.00,,,0.01,Wunderground v.1.15,2013-04-28 00:30:00,
2013-04-27 20:35:00,73.9,62.7,30.17,SW,222,0.0,5.0,68,0.00,,,0.01,Wunderground v.1.15,2013-04-28 00:35:00,
2013-04-27 20:45:00,73.4,62.6,30.17,SSW,205,0.0,5.0,69,0.00,,,0.01,Wunderground v.1.15,2013-04-28 00:45:00,
2013-04-27 20:50:00,73.2,62.8,30.17,SSW,206,0.0,5.0,70,0.00,,,0.01,Wunderground v.1.15,2013-04-28 00:50:00,
2013-04-27 20:55:00,73.0,62.6,30.17,SSW,206,0.0,5.0,70,0.00,,,0.01,Wunderground v.1.15,2013-04-28 00:55:00,
2013-04-27 21:00:00,72.7,62.8,30.17,SSW,209,0.0,5.0,71,0.00,,,0.01,Wunderground v.1.15,2013-04-28 01:00:00,
2013-04-27 21:05:00,72.5,62.6,30.17,SSW,210,0.0,5.0,71,0.00,,,0.01,Wunderground v.1.15,2013-04-28 01:05:00,
2013-04-27 21:10:00,72.3,62.8,30.18,SW,217,0.0,5.0,72,0.00,,,0.01,Wunderground v.1.15,2013-04-28 01:10:00,
2013-04-27 21:15:00,72.1,63.0,30.18,SW,217,0.0,5.0,73,0.00,,,0.01,Wunderground v.1.15,2013-04-28 01:15:00,
2013-04-27 21:20:00,71.9,62.8,30.18,SW,216,0.0,5.0,73,0.00,,,0.01,Wunderground v.1.15,2013-04-28 01:20:00,
2013-04-27 21:25:00,71.7,63.0,30.18,SW,216,0.0,5.0,74,0.00,,,0.01,Wunderground v.1.15,2013-04-28 01:25:00,
2013-04-27 21:30:00,71.5,62.8,30.18,SW,216,0.0,5.0,74,0.00,,,0.01,Wunderground v.1.15,2013-04-28 01:30:00,
2013-04-27 21:35:00,71.3,63.0,30.18,SW,216,0.0,5.0,75,0.00,,,0.01,Wunderground v.1.15,2013-04-28 01:35:00,
2013-04-27 21:45:00,70.9,63.3,30.18,SW,216,0.0,5.0,77,0.00,,,0.01,Wunderground v.1.15,2013-04-28 01:45:00,
2013-04-27 21:50:00,70.8,63.2,30.18,SW,216,0.0,5.0,77,0.00,,,0.01,Wunderground v.1.15,2013-04-28 01:50:00,
2013-04-27 21:55:00,70.6,63.0,30.19,SW,216,0.0,5.0,77,0.00,,,0.01,Wunderground v.1.15,2013-04-28 01:55:00,
2013-04-27 22:00:00,70.4,63.2,30.19,SW,216,0.0,5.0,78,0.00,,,0.01,Wunderground v.1.15,2013-04-28 02:00:00,
2013-04-27 22:05:00,70.3,63.5,30.19,SW,216,0.0,5.0,79,0.00,,,0.01,Wunderground v.1.15,2013-04-28 02:05:00,
2013-04-27 22:10:00,70.1,63.3,30.19,SW,216,0.0,5.0,79,0.00,,,0.01,Wunderground v.1.15,2013-04-28 02:10:00,
2013-04-27 22:20:00,69.8,63.0,30.19,SW,216,0.0,5.0,79,0.00,,,0.01,Wunderground v.1.15,2013-04-28 02:20:00,
2013-04-27 22:25:00,69.6,62.8,30.19,SW,216,0.0,5.0,79,0.00,,,0.01,Wunderground v.1.15,2013-04-28 02:25:00,
2013-04-27 22:30:00,69.4,63.0,30.19,SW,216,0.0,5.0,80,0.00,,,0.01,Wunderground v.1.15,2013-04-28 02:30:00,
2013-04-27 22:35:00,69.3,62.9,30.19,SW,216,0.0,5.0,80,0.00,,,0.01,Wunderground v.1.15,2013-04-28 02:35:00,
2013-04-27 22:40:00,69.1,62.7,30.19,SW,216,0.0,5.0,80,0.00,,,0.01,Wunderground v.1.15,2013-04-28 02:40:00,
2013-04-27 22:45:00,68.9,62.5,30.19,SW,216,0.0,5.0,80,0.00,,,0.01,Wunderground v.1.15,2013-04-28 02:45:00,
2013-04-27 22:50:00,68.8,62.7,30.19,SW,216,0.0,5.0,81,0.00,,,0.01,Wunderground v.1.15,2013-04-28 02:50:00,
2013-04-27 22:55:00,68.6,62.9,30.19,SW,216,0.0,5.0,82,0.00,,,0.01,Wunderground v.1.15,2013-04-28 02:55:00,
2013-04-27 23:00:00,68.5,62.8,30.19,SW,216,0.0,5.0,82,0.00,,,0.01,Wunderground v.1.15,2013-04-28 03:00:00,
2013-04-27 23:05:00,68.4,63.0,30.19,SW,216,0.0,5.0,83,0.00,,,0.01,Wunderground v.1.15,2013-04-28 03:05:00,
2013-04-27 23:10:00,68.3,63.3,30.19,SW,216,0.0,5.0,84,0.00,,,0.01,Wunderground v.1.15,2013-04-28 03:10:00,
2013-04-27 23:20:00,68.1,63.4,30.19,SW,216,0.0,5.0,85,0.00,,,0.01,Wunderground v.1.15,2013-04-28 03:20:00,
2013-04-27 23:25:00,68.0,63.3,30.19,SW,216,0.0,5.0,85,0.00,,,0.01,Wunderground v.1.15,2013-04-28 03:25:00,
2013-04-27 23:30:00,67.8,63.5,30.19,SW,216,0.0,5.0,86,0.00,,,0.01,Wunderground v.1.15,2013-04-28 03:30:00,
2013-04-27 23:35:00,67.6,63.3,30.19,SW,216,0.0,5.0,86,0.00,,,0.01,Wunderground v.1.15,2013-04-28 03:35:00,
2013-04-27 23:40:00,67.5,63.2,30.19,SW,216,0.0,5.0,86,0.00,,,0.01,Wunderground v.1.15,2013-04-28 03:40:00,
2013-04-27 23:45:00,67.3,63.0,30.19,SW,216,0.0,5.0,86,0.00,,,0.01,Wunderground v.1.15,2013-04-28 03:45:00,
2013-04-27 23:55:00,67.0,63.0,30.18,SW,216,0.0,5.0,87,0.00,,,0.01,Wunderground v.1.15,2013-04-28 03:55:00,